sensor_id;sensor_type;location;lat;lon;timestamp;P1;durP1;ratioP1;P2;durP2;ratioP2
26502;SDS011;14177;51.520;6.764;2024-01-25T00:01:01;31.52;;;4.53;;
26502;SDS011;14177;51.520;6.764;2024-01-25T00:03:28;27.33;;;5.03;;
26502;SDS011;14177;51.520;6.764;2024-01-25T00:05:55;35.55;;;6.07;;
26502;SDS011;14177;51.520;6.764;2024-01-25T00:08:23;25.77;;;5.05;;
26502;SDS011;14177;51.520;6.764;2024-01-25T00:10:50;34.10;;;5.00;;
26502;SDS011;14177;51.520;6.764;2024-01-25T00:13:17;30.33;;;5.00;;
26502;SDS011;14177;51.520;6.764;2024-01-25T00:15:44;37.58;;;6.22;;
26502;SDS011;14177;51.520;6.764;2024-01-25T00:18:11;28.30;;;4.97;;
26502;SDS011;14177;51.520;6.764;2024-01-25T00:20:38;28.23;;;5.13;;
26502;SDS011;14177;51.520;6.764;2024-01-25T00:23:06;26.17;;;4.50;;
26502;SDS011;14177;51.520;6.764;2024-01-25T00:25:33;29.77;;;5.63;;
26502;SDS011;14177;51.520;6.764;2024-01-25T00:28:00;26.33;;;4.93;;
26502;SDS011;14177;51.520;6.764;2024-01-25T00:30:27;30.17;;;5.75;;
26502;SDS011;14177;51.520;6.764;2024-01-25T00:32:58;29.27;;;4.93;;
26502;SDS011;14177;51.520;6.764;2024-01-25T00:35:25;21.42;;;4.80;;
26502;SDS011;14177;51.520;6.764;2024-01-25T00:37:53;31.33;;;5.25;;
26502;SDS011;14177;51.520;6.764;2024-01-25T00:40:20;25.17;;;4.55;;
26502;SDS011;14177;51.520;6.764;2024-01-25T00:42:47;38.28;;;6.03;;
26502;SDS011;14177;51.520;6.764;2024-01-25T00:45:19;36.45;;;5.63;;
26502;SDS011;14177;51.520;6.764;2024-01-25T00:47:48;26.38;;;4.85;;
26502;SDS011;14177;51.520;6.764;2024-01-25T00:50:17;26.92;;;5.70;;
26502;SDS011;14177;51.520;6.764;2024-01-25T00:52:51;44.35;;;6.05;;
26502;SDS011;14177;51.520;6.764;2024-01-25T00:55:18;32.25;;;5.13;;
26502;SDS011;14177;51.520;6.764;2024-01-25T00:57:46;25.38;;;4.97;;
26502;SDS011;14177;51.520;6.764;2024-01-25T01:00:13;25.73;;;4.70;;
26502;SDS011;14177;51.520;6.764;2024-01-25T01:02:44;26.75;;;5.03;;
26502;SDS011;14177;51.520;6.764;2024-01-25T01:05:12;28.80;;;5.00;;
26502;SDS011;14177;51.520;6.764;2024-01-25T01:07:40;28.77;;;5.03;;
26502;SDS011;14177;51.520;6.764;2024-01-25T01:10:08;27.35;;;4.68;;
26502;SDS011;14177;51.520;6.764;2024-01-25T01:12:36;23.60;;;4.65;;
26502;SDS011;14177;51.520;6.764;2024-01-25T01:15:04;26.27;;;4.60;;
26502;SDS011;14177;51.520;6.764;2024-01-25T01:17:31;25.42;;;4.32;;
26502;SDS011;14177;51.520;6.764;2024-01-25T01:19:58;30.95;;;4.80;;
26502;SDS011;14177;51.520;6.764;2024-01-25T01:22:26;29.50;;;6.85;;
26502;SDS011;14177;51.520;6.764;2024-01-25T01:24:53;32.92;;;5.82;;
26502;SDS011;14177;51.520;6.764;2024-01-25T01:27:21;34.00;;;5.15;;
26502;SDS011;14177;51.520;6.764;2024-01-25T01:29:48;31.55;;;4.50;;
26502;SDS011;14177;51.520;6.764;2024-01-25T01:32:15;34.53;;;5.28;;
26502;SDS011;14177;51.520;6.764;2024-01-25T01:34:42;26.02;;;4.82;;
26502;SDS011;14177;51.520;6.764;2024-01-25T01:37:09;31.30;;;5.57;;
26502;SDS011;14177;51.520;6.764;2024-01-25T01:39:37;29.15;;;5.60;;
26502;SDS011;14177;51.520;6.764;2024-01-25T01:42:04;30.15;;;5.35;;
26502;SDS011;14177;51.520;6.764;2024-01-25T01:44:31;35.42;;;5.10;;
26502;SDS011;14177;51.520;6.764;2024-01-25T01:46:58;33.95;;;4.90;;
26502;SDS011;14177;51.520;6.764;2024-01-25T01:49:25;25.85;;;4.35;;
26502;SDS011;14177;51.520;6.764;2024-01-25T01:51:54;23.92;;;4.47;;
26502;SDS011;14177;51.520;6.764;2024-01-25T01:54:22;30.83;;;5.43;;
26502;SDS011;14177;51.520;6.764;2024-01-25T01:56:50;25.75;;;6.07;;
26502;SDS011;14177;51.520;6.764;2024-01-25T01:59:18;22.05;;;4.35;;
26502;SDS011;14177;51.520;6.764;2024-01-25T02:01:46;23.80;;;4.60;;
26502;SDS011;14177;51.520;6.764;2024-01-25T02:04:13;24.33;;;5.68;;
26502;SDS011;14177;51.520;6.764;2024-01-25T02:06:41;30.98;;;4.38;;
26502;SDS011;14177;51.520;6.764;2024-01-25T02:09:10;22.70;;;3.85;;
26502;SDS011;14177;51.520;6.764;2024-01-25T02:11:37;30.40;;;4.40;;
26502;SDS011;14177;51.520;6.764;2024-01-25T02:14:04;25.30;;;4.05;;
26502;SDS011;14177;51.520;6.764;2024-01-25T02:16:32;24.40;;;4.22;;
26502;SDS011;14177;51.520;6.764;2024-01-25T02:18:59;29.60;;;5.10;;
26502;SDS011;14177;51.520;6.764;2024-01-25T02:21:26;25.33;;;4.70;;
26502;SDS011;14177;51.520;6.764;2024-01-25T02:23:54;22.50;;;4.03;;
26502;SDS011;14177;51.520;6.764;2024-01-25T02:26:22;27.73;;;4.40;;
26502;SDS011;14177;51.520;6.764;2024-01-25T02:28:49;23.23;;;4.47;;
26502;SDS011;14177;51.520;6.764;2024-01-25T02:31:20;28.40;;;4.35;;
26502;SDS011;14177;51.520;6.764;2024-01-25T02:33:48;23.10;;;3.90;;
26502;SDS011;14177;51.520;6.764;2024-01-25T02:36:15;26.45;;;4.95;;
26502;SDS011;14177;51.520;6.764;2024-01-25T02:38:42;24.02;;;3.95;;
26502;SDS011;14177;51.520;6.764;2024-01-25T02:41:09;28.92;;;4.63;;
26502;SDS011;14177;51.520;6.764;2024-01-25T02:43:36;30.77;;;4.82;;
26502;SDS011;14177;51.520;6.764;2024-01-25T02:46:03;29.35;;;4.22;;
26502;SDS011;14177;51.520;6.764;2024-01-25T02:48:31;33.63;;;5.30;;
26502;SDS011;14177;51.520;6.764;2024-01-25T02:50:58;40.03;;;5.35;;
26502;SDS011;14177;51.520;6.764;2024-01-25T02:53:25;21.60;;;4.72;;
26502;SDS011;14177;51.520;6.764;2024-01-25T02:55:53;30.38;;;5.13;;
26502;SDS011;14177;51.520;6.764;2024-01-25T02:58:20;29.77;;;4.95;;
26502;SDS011;14177;51.520;6.764;2024-01-25T03:00:47;29.23;;;4.53;;
26502;SDS011;14177;51.520;6.764;2024-01-25T03:03:14;31.40;;;5.13;;
26502;SDS011;14177;51.520;6.764;2024-01-25T03:05:42;26.63;;;4.53;;
26502;SDS011;14177;51.520;6.764;2024-01-25T03:08:10;29.98;;;4.90;;
26502;SDS011;14177;51.520;6.764;2024-01-25T03:10:37;32.70;;;5.80;;
26502;SDS011;14177;51.520;6.764;2024-01-25T03:13:04;22.65;;;3.88;;
26502;SDS011;14177;51.520;6.764;2024-01-25T03:15:31;31.90;;;4.78;;
26502;SDS011;14177;51.520;6.764;2024-01-25T03:17:58;28.90;;;5.05;;
26502;SDS011;14177;51.520;6.764;2024-01-25T03:20:25;25.83;;;4.72;;
26502;SDS011;14177;51.520;6.764;2024-01-25T03:22:52;25.48;;;4.32;;
26502;SDS011;14177;51.520;6.764;2024-01-25T03:25:20;28.02;;;4.68;;
26502;SDS011;14177;51.520;6.764;2024-01-25T03:27:47;21.27;;;4.07;;
26502;SDS011;14177;51.520;6.764;2024-01-25T03:30:15;22.42;;;4.82;;
26502;SDS011;14177;51.520;6.764;2024-01-25T03:32:42;21.77;;;4.25;;
26502;SDS011;14177;51.520;6.764;2024-01-25T03:35:09;26.95;;;4.50;;
26502;SDS011;14177;51.520;6.764;2024-01-25T03:37:36;22.88;;;4.82;;
26502;SDS011;14177;51.520;6.764;2024-01-25T03:40:04;23.48;;;4.85;;
26502;SDS011;14177;51.520;6.764;2024-01-25T03:42:32;27.58;;;4.88;;
26502;SDS011;14177;51.520;6.764;2024-01-25T03:44:59;19.88;;;3.83;;
26502;SDS011;14177;51.520;6.764;2024-01-25T03:47:26;20.77;;;4.53;;
26502;SDS011;14177;51.520;6.764;2024-01-25T03:49:53;28.58;;;5.13;;
26502;SDS011;14177;51.520;6.764;2024-01-25T03:52:20;20.90;;;4.15;;
26502;SDS011;14177;51.520;6.764;2024-01-25T03:54:47;23.33;;;4.13;;
26502;SDS011;14177;51.520;6.764;2024-01-25T03:57:15;27.15;;;4.05;;
26502;SDS011;14177;51.520;6.764;2024-01-25T03:59:42;22.98;;;4.97;;
26502;SDS011;14177;51.520;6.764;2024-01-25T04:02:10;27.52;;;4.30;;
26502;SDS011;14177;51.520;6.764;2024-01-25T04:04:37;22.20;;;3.72;;
26502;SDS011;14177;51.520;6.764;2024-01-25T04:07:04;26.17;;;4.15;;
26502;SDS011;14177;51.520;6.764;2024-01-25T04:09:31;20.15;;;5.18;;
26502;SDS011;14177;51.520;6.764;2024-01-25T04:11:59;33.88;;;7.53;;
26502;SDS011;14177;51.520;6.764;2024-01-25T04:14:26;31.05;;;7.97;;
26502;SDS011;14177;51.520;6.764;2024-01-25T04:16:53;27.98;;;6.95;;
26502;SDS011;14177;51.520;6.764;2024-01-25T04:19:20;31.08;;;6.50;;
26502;SDS011;14177;51.520;6.764;2024-01-25T04:21:47;29.85;;;7.43;;
26502;SDS011;14177;51.520;6.764;2024-01-25T04:24:14;28.85;;;5.80;;
26502;SDS011;14177;51.520;6.764;2024-01-25T04:26:41;30.80;;;7.25;;
26502;SDS011;14177;51.520;6.764;2024-01-25T04:29:08;26.20;;;5.90;;
26502;SDS011;14177;51.520;6.764;2024-01-25T04:31:35;24.52;;;6.00;;
26502;SDS011;14177;51.520;6.764;2024-01-25T04:34:12;30.73;;;5.00;;
26502;SDS011;14177;51.520;6.764;2024-01-25T04:36:39;29.73;;;5.63;;
26502;SDS011;14177;51.520;6.764;2024-01-25T04:39:07;29.92;;;4.65;;
26502;SDS011;14177;51.520;6.764;2024-01-25T04:41:34;31.13;;;4.57;;
26502;SDS011;14177;51.520;6.764;2024-01-25T04:44:02;20.63;;;4.82;;
26502;SDS011;14177;51.520;6.764;2024-01-25T04:46:29;26.35;;;5.25;;
26502;SDS011;14177;51.520;6.764;2024-01-25T04:49:02;36.00;;;6.43;;
26502;SDS011;14177;51.520;6.764;2024-01-25T04:51:30;24.40;;;4.53;;
26502;SDS011;14177;51.520;6.764;2024-01-25T04:53:57;31.27;;;5.00;;
26502;SDS011;14177;51.520;6.764;2024-01-25T04:56:24;22.73;;;5.25;;
26502;SDS011;14177;51.520;6.764;2024-01-25T04:58:51;27.83;;;4.68;;
26502;SDS011;14177;51.520;6.764;2024-01-25T05:01:18;27.17;;;4.93;;
26502;SDS011;14177;51.520;6.764;2024-01-25T05:03:45;28.33;;;5.13;;
26502;SDS011;14177;51.520;6.764;2024-01-25T05:06:12;23.40;;;4.85;;
26502;SDS011;14177;51.520;6.764;2024-01-25T05:08:41;32.45;;;5.85;;
26502;SDS011;14177;51.520;6.764;2024-01-25T05:11:10;22.98;;;5.13;;
26502;SDS011;14177;51.520;6.764;2024-01-25T05:13:37;24.67;;;5.40;;
26502;SDS011;14177;51.520;6.764;2024-01-25T05:16:04;19.13;;;3.97;;
26502;SDS011;14177;51.520;6.764;2024-01-25T05:18:31;27.33;;;5.82;;
26502;SDS011;14177;51.520;6.764;2024-01-25T05:20:58;24.80;;;5.18;;
26502;SDS011;14177;51.520;6.764;2024-01-25T05:23:26;32.65;;;5.55;;
26502;SDS011;14177;51.520;6.764;2024-01-25T05:25:53;20.67;;;4.43;;
26502;SDS011;14177;51.520;6.764;2024-01-25T05:28:20;18.73;;;4.40;;
26502;SDS011;14177;51.520;6.764;2024-01-25T05:30:47;24.00;;;4.30;;
26502;SDS011;14177;51.520;6.764;2024-01-25T05:33:15;26.98;;;4.55;;
26502;SDS011;14177;51.520;6.764;2024-01-25T05:35:42;32.92;;;5.13;;
26502;SDS011;14177;51.520;6.764;2024-01-25T05:38:10;25.05;;;5.22;;
26502;SDS011;14177;51.520;6.764;2024-01-25T05:40:37;28.27;;;4.75;;
26502;SDS011;14177;51.520;6.764;2024-01-25T05:43:04;29.90;;;4.88;;
26502;SDS011;14177;51.520;6.764;2024-01-25T05:45:31;28.48;;;5.22;;
26502;SDS011;14177;51.520;6.764;2024-01-25T05:47:58;25.95;;;4.57;;
26502;SDS011;14177;51.520;6.764;2024-01-25T05:50:26;29.02;;;4.90;;
26502;SDS011;14177;51.520;6.764;2024-01-25T05:52:53;27.75;;;5.22;;
26502;SDS011;14177;51.520;6.764;2024-01-25T05:55:20;29.63;;;4.85;;
26502;SDS011;14177;51.520;6.764;2024-01-25T05:57:47;20.35;;;5.55;;
26502;SDS011;14177;51.520;6.764;2024-01-25T06:00:15;34.25;;;4.30;;
26502;SDS011;14177;51.520;6.764;2024-01-25T06:02:47;34.03;;;5.65;;
26502;SDS011;14177;51.520;6.764;2024-01-25T06:05:14;21.33;;;4.55;;
26502;SDS011;14177;51.520;6.764;2024-01-25T06:07:42;32.33;;;5.30;;
26502;SDS011;14177;51.520;6.764;2024-01-25T06:10:10;23.80;;;4.60;;
26502;SDS011;14177;51.520;6.764;2024-01-25T06:12:37;32.35;;;5.28;;
26502;SDS011;14177;51.520;6.764;2024-01-25T06:15:05;26.65;;;4.60;;
26502;SDS011;14177;51.520;6.764;2024-01-25T06:17:33;22.35;;;5.15;;
26502;SDS011;14177;51.520;6.764;2024-01-25T06:20:00;16.92;;;3.90;;
26502;SDS011;14177;51.520;6.764;2024-01-25T06:22:29;21.77;;;5.20;;
26502;SDS011;14177;51.520;6.764;2024-01-25T06:24:56;19.83;;;4.53;;
26502;SDS011;14177;51.520;6.764;2024-01-25T06:27:23;27.80;;;5.80;;
26502;SDS011;14177;51.520;6.764;2024-01-25T06:29:50;31.83;;;6.10;;
26502;SDS011;14177;51.520;6.764;2024-01-25T06:32:17;37.70;;;6.43;;
26502;SDS011;14177;51.520;6.764;2024-01-25T06:37:20;27.02;;;4.18;;
26502;SDS011;14177;51.520;6.764;2024-01-25T06:39:47;21.52;;;3.90;;
26502;SDS011;14177;51.520;6.764;2024-01-25T06:42:15;27.27;;;4.10;;
26502;SDS011;14177;51.520;6.764;2024-01-25T06:44:42;21.27;;;4.90;;
26502;SDS011;14177;51.520;6.764;2024-01-25T06:47:10;23.70;;;4.47;;
26502;SDS011;14177;51.520;6.764;2024-01-25T06:49:37;22.35;;;3.83;;
26502;SDS011;14177;51.520;6.764;2024-01-25T06:52:04;21.90;;;4.05;;
26502;SDS011;14177;51.520;6.764;2024-01-25T06:54:31;24.55;;;4.90;;
26502;SDS011;14177;51.520;6.764;2024-01-25T06:56:59;26.27;;;4.78;;
26502;SDS011;14177;51.520;6.764;2024-01-25T06:59:25;30.90;;;5.30;;
26502;SDS011;14177;51.520;6.764;2024-01-25T07:01:53;19.98;;;4.97;;
26502;SDS011;14177;51.520;6.764;2024-01-25T07:04:21;19.50;;;4.28;;
26502;SDS011;14177;51.520;6.764;2024-01-25T07:06:48;20.98;;;4.90;;
26502;SDS011;14177;51.520;6.764;2024-01-25T07:09:16;26.27;;;4.55;;
26502;SDS011;14177;51.520;6.764;2024-01-25T07:11:43;24.13;;;4.05;;
26502;SDS011;14177;51.520;6.764;2024-01-25T07:14:10;25.40;;;4.28;;
26502;SDS011;14177;51.520;6.764;2024-01-25T07:16:38;21.15;;;4.93;;
26502;SDS011;14177;51.520;6.764;2024-01-25T07:19:05;19.13;;;3.75;;
26502;SDS011;14177;51.520;6.764;2024-01-25T07:21:32;19.95;;;4.35;;
26502;SDS011;14177;51.520;6.764;2024-01-25T07:24:03;23.75;;;3.90;;
26502;SDS011;14177;51.520;6.764;2024-01-25T07:26:30;19.05;;;4.10;;
26502;SDS011;14177;51.520;6.764;2024-01-25T07:28:57;21.23;;;4.28;;
26502;SDS011;14177;51.520;6.764;2024-01-25T07:31:26;22.27;;;4.30;;
26502;SDS011;14177;51.520;6.764;2024-01-25T07:33:54;25.20;;;5.50;;
26502;SDS011;14177;51.520;6.764;2024-01-25T07:36:22;22.58;;;4.63;;
26502;SDS011;14177;51.520;6.764;2024-01-25T07:38:51;23.95;;;4.65;;
26502;SDS011;14177;51.520;6.764;2024-01-25T07:41:18;28.45;;;5.00;;
26502;SDS011;14177;51.520;6.764;2024-01-25T07:43:45;25.95;;;5.45;;
26502;SDS011;14177;51.520;6.764;2024-01-25T07:46:12;19.70;;;5.00;;
26502;SDS011;14177;51.520;6.764;2024-01-25T07:48:41;32.83;;;5.40;;
26502;SDS011;14177;51.520;6.764;2024-01-25T07:51:12;26.00;;;4.88;;
26502;SDS011;14177;51.520;6.764;2024-01-25T07:53:40;29.33;;;4.55;;
26502;SDS011;14177;51.520;6.764;2024-01-25T07:56:08;27.10;;;5.75;;
26502;SDS011;14177;51.520;6.764;2024-01-25T07:58:36;31.33;;;4.88;;
26502;SDS011;14177;51.520;6.764;2024-01-25T08:01:04;33.30;;;5.88;;
26502;SDS011;14177;51.520;6.764;2024-01-25T08:03:32;26.00;;;6.35;;
26502;SDS011;14177;51.520;6.764;2024-01-25T08:06:01;25.42;;;5.95;;
26502;SDS011;14177;51.520;6.764;2024-01-25T08:08:29;34.05;;;6.20;;
26502;SDS011;14177;51.520;6.764;2024-01-25T08:10:57;27.02;;;6.18;;
26502;SDS011;14177;51.520;6.764;2024-01-25T08:13:24;33.17;;;6.25;;
26502;SDS011;14177;51.520;6.764;2024-01-25T08:15:56;23.65;;;6.15;;
26502;SDS011;14177;51.520;6.764;2024-01-25T08:18:24;21.23;;;5.30;;
26502;SDS011;14177;51.520;6.764;2024-01-25T08:20:51;37.47;;;6.03;;
26502;SDS011;14177;51.520;6.764;2024-01-25T08:23:18;26.02;;;5.45;;
26502;SDS011;14177;51.520;6.764;2024-01-25T08:25:45;22.05;;;5.50;;
26502;SDS011;14177;51.520;6.764;2024-01-25T08:28:12;31.65;;;6.30;;
26502;SDS011;14177;51.520;6.764;2024-01-25T08:30:39;34.38;;;5.75;;
26502;SDS011;14177;51.520;6.764;2024-01-25T08:33:07;25.33;;;5.50;;
26502;SDS011;14177;51.520;6.764;2024-01-25T08:35:34;28.70;;;4.88;;
26502;SDS011;14177;51.520;6.764;2024-01-25T08:38:01;27.83;;;5.25;;
26502;SDS011;14177;51.520;6.764;2024-01-25T08:40:29;28.65;;;6.13;;
26502;SDS011;14177;51.520;6.764;2024-01-25T08:42:56;29.92;;;5.93;;
26502;SDS011;14177;51.520;6.764;2024-01-25T08:45:23;35.88;;;6.55;;
26502;SDS011;14177;51.520;6.764;2024-01-25T08:47:50;30.52;;;5.90;;
26502;SDS011;14177;51.520;6.764;2024-01-25T08:50:18;28.17;;;5.38;;
26502;SDS011;14177;51.520;6.764;2024-01-25T08:52:47;28.42;;;6.35;;
26502;SDS011;14177;51.520;6.764;2024-01-25T08:55:15;29.73;;;6.35;;
26502;SDS011;14177;51.520;6.764;2024-01-25T08:57:42;33.60;;;6.40;;
26502;SDS011;14177;51.520;6.764;2024-01-25T09:00:09;27.73;;;6.40;;
26502;SDS011;14177;51.520;6.764;2024-01-25T09:02:37;30.25;;;6.55;;
26502;SDS011;14177;51.520;6.764;2024-01-25T09:05:05;30.75;;;6.63;;
26502;SDS011;14177;51.520;6.764;2024-01-25T09:07:33;24.65;;;5.55;;
26502;SDS011;14177;51.520;6.764;2024-01-25T09:10:01;31.52;;;6.47;;
26502;SDS011;14177;51.520;6.764;2024-01-25T09:12:29;23.30;;;5.95;;
26502;SDS011;14177;51.520;6.764;2024-01-25T09:14:56;39.00;;;7.85;;
26502;SDS011;14177;51.520;6.764;2024-01-25T09:17:23;27.02;;;6.68;;
26502;SDS011;14177;51.520;6.764;2024-01-25T09:19:50;28.42;;;6.65;;
26502;SDS011;14177;51.520;6.764;2024-01-25T09:22:18;32.83;;;6.88;;
26502;SDS011;14177;51.520;6.764;2024-01-25T09:24:46;31.38;;;6.93;;
26502;SDS011;14177;51.520;6.764;2024-01-25T09:27:14;46.28;;;7.55;;
26502;SDS011;14177;51.520;6.764;2024-01-25T09:29:41;38.72;;;7.65;;
26502;SDS011;14177;51.520;6.764;2024-01-25T09:32:09;31.27;;;7.00;;
26502;SDS011;14177;51.520;6.764;2024-01-25T09:34:37;27.58;;;7.03;;
26502;SDS011;14177;51.520;6.764;2024-01-25T09:37:08;37.15;;;7.28;;
26502;SDS011;14177;51.520;6.764;2024-01-25T09:39:37;41.40;;;6.93;;
26502;SDS011;14177;51.520;6.764;2024-01-25T09:42:16;31.85;;;7.03;;
26502;SDS011;14177;51.520;6.764;2024-01-25T09:45:04;30.85;;;7.22;;
26502;SDS011;14177;51.520;6.764;2024-01-25T09:48:22;29.80;;;7.32;;
26502;SDS011;14177;51.520;6.764;2024-01-25T09:51:22;31.85;;;7.65;;
26502;SDS011;14177;51.520;6.764;2024-01-25T09:53:52;35.90;;;8.38;;
26502;SDS011;14177;51.520;6.764;2024-01-25T09:56:29;31.42;;;6.78;;
26502;SDS011;14177;51.520;6.764;2024-01-25T09:59:22;29.73;;;7.47;;
26502;SDS011;14177;51.520;6.764;2024-01-25T10:02:55;35.97;;;7.13;;
26502;SDS011;14177;51.520;6.764;2024-01-25T10:10:15;33.63;;;7.88;;
26502;SDS011;14177;51.520;6.764;2024-01-25T10:13:11;31.77;;;8.05;;
26502;SDS011;14177;51.520;6.764;2024-01-25T10:15:50;33.40;;;8.43;;
26502;SDS011;14177;51.520;6.764;2024-01-25T10:19:22;33.60;;;7.63;;
26502;SDS011;14177;51.520;6.764;2024-01-25T10:22:45;26.45;;;8.35;;
26502;SDS011;14177;51.520;6.764;2024-01-25T10:26:08;28.13;;;7.45;;
26502;SDS011;14177;51.520;6.764;2024-01-25T10:29:56;31.55;;;8.85;;
26502;SDS011;14177;51.520;6.764;2024-01-25T10:33:02;29.55;;;8.80;;
26502;SDS011;14177;51.520;6.764;2024-01-25T10:36:34;29.35;;;8.80;;
26502;SDS011;14177;51.520;6.764;2024-01-25T10:40:10;32.05;;;9.52;;
26502;SDS011;14177;51.520;6.764;2024-01-25T10:43:13;38.80;;;10.40;;
26502;SDS011;14177;51.520;6.764;2024-01-25T10:45:41;32.40;;;9.23;;
26502;SDS011;14177;51.520;6.764;2024-01-25T10:48:08;36.00;;;9.52;;
26502;SDS011;14177;51.520;6.764;2024-01-25T10:50:37;34.92;;;8.85;;
26502;SDS011;14177;51.520;6.764;2024-01-25T10:53:06;36.72;;;9.45;;
26502;SDS011;14177;51.520;6.764;2024-01-25T10:55:35;39.00;;;10.15;;
26502;SDS011;14177;51.520;6.764;2024-01-25T10:58:03;32.97;;;9.90;;
26502;SDS011;14177;51.520;6.764;2024-01-25T11:00:31;32.15;;;9.63;;
26502;SDS011;14177;51.520;6.764;2024-01-25T11:03:00;46.85;;;9.45;;
26502;SDS011;14177;51.520;6.764;2024-01-25T11:05:27;36.15;;;9.48;;
26502;SDS011;14177;51.520;6.764;2024-01-25T11:07:55;34.63;;;9.75;;
26502;SDS011;14177;51.520;6.764;2024-01-25T11:10:25;30.27;;;8.45;;
26502;SDS011;14177;51.520;6.764;2024-01-25T11:12:55;32.25;;;10.52;;
26502;SDS011;14177;51.520;6.764;2024-01-25T11:15:31;34.40;;;10.70;;
26502;SDS011;14177;51.520;6.764;2024-01-25T11:18:04;30.58;;;9.95;;
26502;SDS011;14177;51.520;6.764;2024-01-25T11:20:35;32.15;;;9.98;;
26502;SDS011;14177;51.520;6.764;2024-01-25T11:23:07;36.50;;;9.93;;
26502;SDS011;14177;51.520;6.764;2024-01-25T11:25:39;33.70;;;9.98;;
26502;SDS011;14177;51.520;6.764;2024-01-25T11:28:06;32.83;;;11.35;;
26502;SDS011;14177;51.520;6.764;2024-01-25T11:30:34;29.27;;;10.20;;
26502;SDS011;14177;51.520;6.764;2024-01-25T11:33:06;30.02;;;10.60;;
26502;SDS011;14177;51.520;6.764;2024-01-25T11:35:34;38.25;;;10.00;;
26502;SDS011;14177;51.520;6.764;2024-01-25T11:38:02;40.22;;;11.00;;
26502;SDS011;14177;51.520;6.764;2024-01-25T11:40:30;33.58;;;10.20;;
26502;SDS011;14177;51.520;6.764;2024-01-25T11:43:04;30.50;;;9.32;;
26502;SDS011;14177;51.520;6.764;2024-01-25T11:48:10;29.73;;;8.95;;
26502;SDS011;14177;51.520;6.764;2024-01-25T11:50:38;38.97;;;10.13;;
26502;SDS011;14177;51.520;6.764;2024-01-25T11:53:05;35.20;;;9.50;;
26502;SDS011;14177;51.520;6.764;2024-01-25T11:55:32;28.40;;;9.10;;
26502;SDS011;14177;51.520;6.764;2024-01-25T11:57:59;31.88;;;10.57;;
26502;SDS011;14177;51.520;6.764;2024-01-25T12:00:26;37.40;;;11.05;;
26502;SDS011;14177;51.520;6.764;2024-01-25T12:02:54;38.17;;;11.32;;
26502;SDS011;14177;51.520;6.764;2024-01-25T12:06:03;35.00;;;11.27;;
26502;SDS011;14177;51.520;6.764;2024-01-25T12:13:02;37.25;;;11.07;;
26502;SDS011;14177;51.520;6.764;2024-01-25T12:16:38;47.03;;;11.93;;
26502;SDS011;14177;51.520;6.764;2024-01-25T12:19:29;38.10;;;12.52;;
26502;SDS011;14177;51.520;6.764;2024-01-25T12:22:00;36.15;;;10.48;;
26502;SDS011;14177;51.520;6.764;2024-01-25T12:24:31;32.70;;;10.38;;
26502;SDS011;14177;51.520;6.764;2024-01-25T12:27:19;47.55;;;10.65;;
26502;SDS011;14177;51.520;6.764;2024-01-25T12:31:01;43.90;;;10.98;;
26502;SDS011;14177;51.520;6.764;2024-01-25T12:33:43;42.92;;;10.40;;
26502;SDS011;14177;51.520;6.764;2024-01-25T12:36:18;35.92;;;9.10;;
26502;SDS011;14177;51.520;6.764;2024-01-25T12:38:52;28.17;;;9.40;;
26502;SDS011;14177;51.520;6.764;2024-01-25T12:41:24;28.17;;;8.18;;
26502;SDS011;14177;51.520;6.764;2024-01-25T12:43:53;31.08;;;8.07;;
26502;SDS011;14177;51.520;6.764;2024-01-25T12:46:27;29.23;;;10.10;;
26502;SDS011;14177;51.520;6.764;2024-01-25T12:49:03;33.63;;;8.50;;
26502;SDS011;14177;51.520;6.764;2024-01-25T12:52:50;32.65;;;9.40;;
26502;SDS011;14177;51.520;6.764;2024-01-25T12:55:39;31.92;;;8.35;;
26502;SDS011;14177;51.520;6.764;2024-01-25T12:58:31;41.30;;;9.48;;
26502;SDS011;14177;51.520;6.764;2024-01-25T13:01:11;30.83;;;9.27;;
26502;SDS011;14177;51.520;6.764;2024-01-25T13:03:50;38.55;;;10.00;;
26502;SDS011;14177;51.520;6.764;2024-01-25T13:06:18;36.20;;;11.63;;
26502;SDS011;14177;51.520;6.764;2024-01-25T13:09:07;45.40;;;10.63;;
26502;SDS011;14177;51.520;6.764;2024-01-25T13:17:15;37.57;;;10.47;;
26502;SDS011;14177;51.520;6.764;2024-01-25T13:20:24;43.55;;;10.77;;
26502;SDS011;14177;51.520;6.764;2024-01-25T13:23:22;44.35;;;11.73;;
26502;SDS011;14177;51.520;6.764;2024-01-25T13:26:16;42.97;;;11.10;;
26502;SDS011;14177;51.520;6.764;2024-01-25T13:30:05;39.20;;;11.75;;
26502;SDS011;14177;51.520;6.764;2024-01-25T13:32:55;55.63;;;13.02;;
26502;SDS011;14177;51.520;6.764;2024-01-25T13:36:33;45.03;;;12.02;;
26502;SDS011;14177;51.520;6.764;2024-01-25T13:40:54;40.92;;;10.98;;
26502;SDS011;14177;51.520;6.764;2024-01-25T13:44:08;38.13;;;10.85;;
26502;SDS011;14177;51.520;6.764;2024-01-25T13:47:14;42.78;;;12.00;;
26502;SDS011;14177;51.520;6.764;2024-01-25T13:49:50;36.00;;;12.05;;
26502;SDS011;14177;51.520;6.764;2024-01-25T13:53:28;37.53;;;12.00;;
26502;SDS011;14177;51.520;6.764;2024-01-25T13:56:17;49.67;;;13.65;;
26502;SDS011;14177;51.520;6.764;2024-01-25T13:58:51;46.63;;;13.57;;
26502;SDS011;14177;51.520;6.764;2024-01-25T14:01:46;49.75;;;13.13;;
26502;SDS011;14177;51.520;6.764;2024-01-25T14:04:13;56.10;;;14.57;;
26502;SDS011;14177;51.520;6.764;2024-01-25T14:06:41;49.75;;;13.25;;
26502;SDS011;14177;51.520;6.764;2024-01-25T14:09:08;44.53;;;11.73;;
26502;SDS011;14177;51.520;6.764;2024-01-25T14:11:36;48.90;;;12.73;;
26502;SDS011;14177;51.520;6.764;2024-01-25T14:14:03;43.22;;;14.13;;
26502;SDS011;14177;51.520;6.764;2024-01-25T14:16:30;47.33;;;13.07;;
26502;SDS011;14177;51.520;6.764;2024-01-25T14:18:57;47.63;;;14.23;;
26502;SDS011;14177;51.520;6.764;2024-01-25T14:21:26;48.30;;;14.25;;
26502;SDS011;14177;51.520;6.764;2024-01-25T14:23:53;52.40;;;15.48;;
26502;SDS011;14177;51.520;6.764;2024-01-25T14:26:20;66.40;;;17.10;;
26502;SDS011;14177;51.520;6.764;2024-01-25T14:28:47;52.88;;;14.00;;
26502;SDS011;14177;51.520;6.764;2024-01-25T14:31:15;42.78;;;13.85;;
26502;SDS011;14177;51.520;6.764;2024-01-25T14:33:42;40.60;;;12.63;;
26502;SDS011;14177;51.520;6.764;2024-01-25T14:36:12;39.55;;;12.02;;
26502;SDS011;14177;51.520;6.764;2024-01-25T14:38:40;30.90;;;10.95;;
26502;SDS011;14177;51.520;6.764;2024-01-25T14:41:11;44.75;;;12.50;;
26502;SDS011;14177;51.520;6.764;2024-01-25T14:43:38;52.00;;;13.93;;
26502;SDS011;14177;51.520;6.764;2024-01-25T14:46:06;44.92;;;12.95;;
26502;SDS011;14177;51.520;6.764;2024-01-25T14:48:34;40.15;;;10.90;;
26502;SDS011;14177;51.520;6.764;2024-01-25T14:51:01;43.08;;;13.18;;
26502;SDS011;14177;51.520;6.764;2024-01-25T14:53:29;41.03;;;13.18;;
26502;SDS011;14177;51.520;6.764;2024-01-25T14:55:57;48.35;;;12.57;;
26502;SDS011;14177;51.520;6.764;2024-01-25T14:58:28;37.00;;;11.05;;
26502;SDS011;14177;51.520;6.764;2024-01-25T15:00:58;45.00;;;13.15;;
26502;SDS011;14177;51.520;6.764;2024-01-25T15:03:33;54.03;;;12.88;;
26502;SDS011;14177;51.520;6.764;2024-01-25T15:06:21;48.40;;;11.10;;
26502;SDS011;14177;51.520;6.764;2024-01-25T15:08:57;38.40;;;12.60;;
26502;SDS011;14177;51.520;6.764;2024-01-25T15:11:41;42.22;;;12.07;;
26502;SDS011;14177;51.520;6.764;2024-01-25T15:14:43;47.45;;;10.70;;
26502;SDS011;14177;51.520;6.764;2024-01-25T15:17:40;41.40;;;10.93;;
26502;SDS011;14177;51.520;6.764;2024-01-25T15:20:30;43.83;;;12.07;;
26502;SDS011;14177;51.520;6.764;2024-01-25T15:23:48;39.70;;;10.63;;
26502;SDS011;14177;51.520;6.764;2024-01-25T15:26:40;38.78;;;10.35;;